createdAt,value
2023-02-24T00:00:13.367Z,1014.56
2023-02-24T00:01:13.454Z,1014.58
2023-02-24T00:02:13.818Z,1014.60
2023-02-24T00:03:14.218Z,1014.56
2023-02-24T00:04:13.475Z,1014.53
2023-02-24T00:05:13.438Z,1014.52
2023-02-24T00:06:13.734Z,1014.57
2023-02-24T00:07:14.006Z,1014.51
2023-02-24T00:08:12.939Z,1014.50
2023-02-24T00:09:13.135Z,1014.49
2023-02-24T00:10:13.144Z,1014.48
2023-02-24T00:11:13.280Z,1014.46
2023-02-24T00:12:13.398Z,1014.42
2023-02-24T00:13:13.378Z,1014.41
2023-02-24T00:14:18.491Z,1014.43
2023-02-24T00:15:13.557Z,1014.40
2023-02-24T00:16:13.989Z,1014.39
2023-02-24T00:17:13.035Z,1014.37
2023-02-24T00:18:13.018Z,1014.39
2023-02-24T00:19:13.081Z,1014.36
2023-02-24T00:20:13.123Z,1014.37
2023-02-24T00:21:13.104Z,1014.31
2023-02-24T00:22:13.102Z,1014.33
2023-02-24T00:23:13.314Z,1014.31
2023-02-24T00:24:14.511Z,1014.34
2023-02-24T00:25:18.458Z,1014.32
2023-02-24T00:26:15.323Z,1014.26
2023-02-24T00:27:13.570Z,1014.26
2023-02-24T00:28:13.791Z,1014.23
2023-02-24T00:29:13.708Z,1014.30
2023-02-24T00:30:13.986Z,1014.29
2023-02-24T00:31:13.284Z,1014.25
2023-02-24T00:32:14.157Z,1014.23
2023-02-24T00:33:13.497Z,1014.22
2023-02-24T00:34:14.856Z,1014.22
2023-02-24T00:35:14.348Z,1014.18
2023-02-24T00:36:13.375Z,1014.15
2023-02-24T00:37:13.449Z,1014.13
2023-02-24T00:38:13.768Z,1014.13
2023-02-24T00:39:14.067Z,1014.09
2023-02-24T00:40:13.052Z,1014.07
2023-02-24T00:41:13.244Z,1014.09
2023-02-24T00:42:13.352Z,1014.06
2023-02-24T00:43:13.535Z,1014.03
2023-02-24T00:44:15.409Z,1014.02
2023-02-24T00:45:13.863Z,1014.00
2023-02-24T00:46:14.164Z,1014.02
2023-02-24T00:47:13.777Z,1014.01
2023-02-24T00:48:13.954Z,1014.05
2023-02-24T00:49:12.999Z,1014.02
2023-02-24T00:50:13.096Z,1013.99
2023-02-24T00:51:13.253Z,1013.95
2023-02-24T00:52:13.965Z,1013.92
2023-02-24T00:53:13.389Z,1013.92
2023-02-24T00:54:13.396Z,1013.88
2023-02-24T00:55:13.741Z,1013.87
2023-02-24T00:56:14.072Z,1013.86
2023-02-24T00:57:13.104Z,1013.86
2023-02-24T00:58:12.978Z,1013.88
2023-02-24T00:59:13.471Z,1013.85
2023-02-24T01:00:13.795Z,1013.83
2023-02-24T01:01:13.957Z,1013.82
2023-02-24T01:02:12.987Z,1013.85
2023-02-24T01:03:13.309Z,1013.85
2023-02-24T01:04:13.315Z,1013.85
2023-02-24T01:05:13.280Z,1013.92
2023-02-24T01:06:13.229Z,1013.87
2023-02-24T01:07:13.712Z,1013.87
2023-02-24T01:08:13.570Z,1013.91
2023-02-24T01:09:13.558Z,1013.90
2023-02-24T01:10:13.789Z,1013.89
2023-02-24T01:11:15.094Z,1013.87
2023-02-24T01:12:13.092Z,1013.86
2023-02-24T01:13:13.180Z,1013.82
2023-02-24T01:14:13.166Z,1013.81
2023-02-24T01:15:14.371Z,1013.82
2023-02-24T01:16:13.601Z,1013.84
2023-02-24T01:17:13.874Z,1013.83
2023-02-24T01:18:14.324Z,1013.87
2023-02-24T01:19:13.237Z,1013.81
2023-02-24T01:20:13.217Z,1013.83
2023-02-24T01:21:18.321Z,1013.84
2023-02-24T01:22:13.397Z,1013.76
2023-02-24T01:23:14.392Z,1013.77
2023-02-24T01:24:13.718Z,1013.75
2023-02-24T01:25:13.570Z,1013.78
2023-02-24T01:26:13.557Z,1013.71
2023-02-24T01:27:13.508Z,1013.73
2023-02-24T01:28:13.493Z,1013.73
2023-02-24T01:29:13.505Z,1013.72
2023-02-24T01:30:13.487Z,1013.64
2023-02-24T01:31:13.533Z,1013.64
2023-02-24T01:32:14.209Z,1013.59
2023-02-24T01:33:13.696Z,1013.61
2023-02-24T01:34:13.654Z,1013.62
2023-02-24T01:35:13.673Z,1013.58
2023-02-24T01:36:13.999Z,1013.60
2023-02-24T01:37:12.956Z,1013.59
2023-02-24T01:38:13.708Z,1013.59
2023-02-24T01:39:13.724Z,1013.58
2023-02-24T01:40:13.875Z,1013.58
2023-02-24T01:41:12.904Z,1013.54
2023-02-24T01:42:13.676Z,1013.54
2023-02-24T01:43:14.279Z,1013.53
2023-02-24T01:44:13.612Z,1013.53
2023-02-24T01:45:13.605Z,1013.55
2023-02-24T01:46:13.636Z,1013.54
2023-02-24T01:47:13.710Z,1013.52
2023-02-24T01:48:13.651Z,1013.55
2023-02-24T01:49:13.557Z,1013.57
2023-02-24T01:50:13.522Z,1013.50
2023-02-24T01:51:13.596Z,1013.51
2023-02-24T01:52:13.540Z,1013.48
2023-02-24T01:53:13.696Z,1013.57
2023-02-24T01:54:13.762Z,1013.55
2023-02-24T01:55:13.679Z,1013.53
2023-02-24T01:56:13.610Z,1013.51
2023-02-24T01:57:13.557Z,1013.48
2023-02-24T01:58:13.593Z,1013.49
2023-02-24T01:59:13.501Z,1013.45
2023-02-24T02:00:13.715Z,1013.43
2023-02-24T02:01:13.610Z,1013.46
2023-02-24T02:02:14.028Z,1013.43
2023-02-24T02:03:14.577Z,1013.45
2023-02-24T02:04:14.008Z,1013.44
2023-02-24T02:05:13.135Z,1013.46
2023-02-24T02:06:13.515Z,1013.42
2023-02-24T02:07:13.674Z,1013.43
2023-02-24T02:08:13.898Z,1013.43
2023-02-24T02:09:13.282Z,1013.37
2023-02-24T02:10:13.469Z,1013.37
2023-02-24T02:11:13.441Z,1013.39
2023-02-24T02:12:13.363Z,1013.32
2023-02-24T02:13:13.588Z,1013.30
2023-02-24T02:14:13.839Z,1013.26
2023-02-24T02:15:14.111Z,1013.30
2023-02-24T02:16:13.788Z,1013.24
2023-02-24T02:17:13.609Z,1013.23
2023-02-24T02:18:13.587Z,1013.14
2023-02-24T02:19:13.695Z,1013.12
2023-02-24T02:20:13.630Z,1013.14
2023-02-24T02:21:13.814Z,1013.07
2023-02-24T02:22:13.787Z,1013.06
2023-02-24T02:23:13.705Z,1013.05
2023-02-24T02:24:13.946Z,1013.02
2023-02-24T02:25:13.025Z,1012.99
2023-02-24T02:26:13.008Z,1012.98
2023-02-24T02:27:13.086Z,1012.97
2023-02-24T02:28:13.289Z,1012.96
2023-02-24T02:29:13.653Z,1012.92
2023-02-24T02:30:13.718Z,1012.94
2023-02-24T02:31:14.216Z,1012.93
2023-02-24T02:32:13.609Z,1012.88
2023-02-24T02:33:13.668Z,1012.84
2023-02-24T02:34:14.164Z,1012.83
2023-02-24T02:35:13.119Z,1012.82
2023-02-24T02:36:13.200Z,1012.79
2023-02-24T02:37:13.157Z,1012.77
2023-02-24T02:38:13.335Z,1012.80
2023-02-24T02:39:13.449Z,1012.77
2023-02-24T02:40:13.349Z,1012.73
2023-02-24T02:41:13.290Z,1012.66
2023-02-24T02:42:13.404Z,1012.64
2023-02-24T02:43:13.468Z,1012.64
2023-02-24T02:44:13.810Z,1012.70
2023-02-24T02:45:14.022Z,1012.70
2023-02-24T02:46:13.436Z,1012.67
2023-02-24T02:47:13.513Z,1012.67
2023-02-24T02:48:13.602Z,1012.63
2023-02-24T02:49:13.587Z,1012.66
2023-02-24T02:50:13.775Z,1012.61
2023-02-24T02:51:14.061Z,1012.61
2023-02-24T02:52:12.941Z,1012.58
2023-02-24T02:53:12.979Z,1012.57
2023-02-24T02:54:13.245Z,1012.58
2023-02-24T02:55:13.379Z,1012.56
2023-02-24T02:56:13.348Z,1012.53
2023-02-24T02:57:13.313Z,1012.54
2023-02-24T02:58:13.419Z,1012.51
2023-02-24T02:59:13.326Z,1012.47
2023-02-24T03:00:13.241Z,1012.49
2023-02-24T03:01:13.364Z,1012.49
2023-02-24T03:02:13.402Z,1012.48
2023-02-24T03:03:13.558Z,1012.45
2023-02-24T03:04:13.605Z,1012.45
2023-02-24T03:05:13.712Z,1012.44
2023-02-24T03:06:13.641Z,1012.42
2023-02-24T03:07:13.779Z,1012.41
2023-02-24T03:08:13.740Z,1012.37
2023-02-24T03:09:14.042Z,1012.34
2023-02-24T03:10:13.220Z,1012.37
2023-02-24T03:11:13.200Z,1012.38
2023-02-24T03:12:13.373Z,1012.32
2023-02-24T03:13:13.378Z,1012.33
2023-02-24T03:14:13.373Z,1012.31
2023-02-24T03:15:13.606Z,1012.30
2023-02-24T03:16:14.002Z,1012.34
2023-02-24T03:17:13.474Z,1012.30
2023-02-24T03:18:13.510Z,1012.33
2023-02-24T03:19:13.400Z,1012.30
2023-02-24T03:20:13.343Z,1012.29
2023-02-24T03:21:13.393Z,1012.26
2023-02-24T03:22:13.553Z,1012.23
2023-02-24T03:23:13.491Z,1012.26
2023-02-24T03:24:13.602Z,1012.24
2023-02-24T03:25:13.723Z,1012.15
2023-02-24T03:26:13.689Z,1012.16
2023-02-24T03:27:13.669Z,1012.14
2023-02-24T03:28:13.587Z,1012.12
2023-02-24T03:29:13.822Z,1012.09
2023-02-24T03:30:13.888Z,1012.11
2023-02-24T03:31:12.825Z,1012.09
2023-02-24T03:32:14.069Z,1012.07
2023-02-24T03:33:13.133Z,1012.11
2023-02-24T03:34:13.142Z,1012.12
2023-02-24T03:35:13.232Z,1012.12
2023-02-24T03:36:13.272Z,1012.15
2023-02-24T03:37:13.379Z,1012.15
2023-02-24T03:38:13.454Z,1012.12
2023-02-24T03:39:13.818Z,1012.10
2023-02-24T03:40:14.057Z,1012.12
2023-02-24T03:41:12.964Z,1012.14
2023-02-24T03:42:12.869Z,1012.11
2023-02-24T03:43:16.031Z,1012.14
2023-02-24T03:44:13.232Z,1012.06
2023-02-24T03:45:13.249Z,1012.03
2023-02-24T03:46:13.356Z,1012.04
2023-02-24T03:47:13.228Z,1012.04
2023-02-24T03:48:13.516Z,1012.05
2023-02-24T03:49:13.627Z,1012.05
2023-02-24T03:50:13.821Z,1012.07
2023-02-24T03:51:13.669Z,1012.04
2023-02-24T03:52:13.487Z,1012.04
2023-02-24T03:53:13.419Z,1011.99
2023-02-24T03:54:13.358Z,1011.98
2023-02-24T03:55:13.569Z,1011.93
2023-02-24T03:56:13.539Z,1011.94
2023-02-24T03:57:13.505Z,1011.95
2023-02-24T03:58:13.459Z,1011.92
2023-02-24T03:59:15.018Z,1011.93
2023-02-24T04:00:12.931Z,1011.94
2023-02-24T04:01:12.924Z,1011.98
2023-02-24T04:02:13.816Z,1011.95
2023-02-24T04:03:14.317Z,1011.97
2023-02-24T04:04:13.353Z,1012.01
2023-02-24T04:05:13.288Z,1012.03
2023-02-24T04:06:13.580Z,1012.02
2023-02-24T04:07:13.696Z,1012.02
2023-02-24T04:08:13.638Z,1011.99
2023-02-24T04:09:13.660Z,1012.01
2023-02-24T04:10:13.603Z,1011.99
2023-02-24T04:11:13.633Z,1011.95
2023-02-24T04:12:14.087Z,1011.99
2023-02-24T04:13:13.276Z,1011.95
2023-02-24T04:14:13.574Z,1011.92
2023-02-24T04:15:13.764Z,1011.95
2023-02-24T04:16:13.844Z,1011.90
2023-02-24T04:17:13.117Z,1011.87
2023-02-24T04:18:13.061Z,1011.86
2023-02-24T04:19:12.935Z,1011.86
2023-02-24T04:20:12.996Z,1011.84
2023-02-24T04:21:12.903Z,1011.87
2023-02-24T04:22:12.759Z,1011.84
2023-02-24T04:23:13.718Z,1011.83
2023-02-24T04:24:13.793Z,1011.83
2023-02-24T04:25:14.282Z,1011.84
2023-02-24T04:26:13.295Z,1011.88
2023-02-24T04:27:13.144Z,1011.93
2023-02-24T04:28:13.479Z,1011.90
2023-02-24T04:29:13.574Z,1011.88
2023-02-24T04:30:13.614Z,1011.87
2023-02-24T04:31:13.616Z,1011.83
2023-02-24T04:32:14.028Z,1011.77
2023-02-24T04:33:13.163Z,1011.80
2023-02-24T04:34:13.300Z,1011.79
2023-02-24T04:35:13.281Z,1011.75
2023-02-24T04:36:13.156Z,1011.76
2023-02-24T04:37:13.106Z,1011.77
2023-02-24T04:38:13.106Z,1011.75
2023-02-24T04:39:13.379Z,1011.72
2023-02-24T04:40:13.247Z,1011.73
2023-02-24T04:41:13.205Z,1011.75
2023-02-24T04:42:13.106Z,1011.70
2023-02-24T04:43:13.272Z,1011.68
2023-02-24T04:44:13.297Z,1011.66
2023-02-24T04:45:13.203Z,1011.62
2023-02-24T04:46:13.074Z,1011.65
2023-02-24T04:47:13.222Z,1011.60
2023-02-24T04:48:13.268Z,1011.62
2023-02-24T04:49:13.605Z,1011.56
2023-02-24T04:50:13.567Z,1011.55
2023-02-24T04:51:13.451Z,1011.56
2023-02-24T04:52:13.424Z,1011.57
2023-02-24T04:53:13.633Z,1011.53
2023-02-24T04:54:13.640Z,1011.55
2023-02-24T04:55:13.684Z,1011.52
2023-02-24T04:56:13.970Z,1011.53
2023-02-24T04:57:13.045Z,1011.50
2023-02-24T04:58:13.249Z,1011.46
2023-02-24T04:59:13.102Z,1011.46
2023-02-24T05:00:12.970Z,1011.46
2023-02-24T05:01:13.343Z,1011.45
2023-02-24T05:02:20.121Z,1011.50
2023-02-24T05:03:13.518Z,1011.48
2023-02-24T05:04:13.578Z,1011.46
2023-02-24T05:05:14.057Z,1011.47
2023-02-24T05:06:13.193Z,1011.46
2023-02-24T05:07:13.173Z,1011.43
2023-02-24T05:08:13.324Z,1011.45
2023-02-24T05:09:13.360Z,1011.48
2023-02-24T05:10:13.285Z,1011.43
2023-02-24T05:11:13.526Z,1011.45
2023-02-24T05:12:13.830Z,1011.41
2023-02-24T05:13:14.141Z,1011.41
2023-02-24T05:14:13.090Z,1011.41
2023-02-24T05:15:12.989Z,1011.37
2023-02-24T05:16:12.960Z,1011.35
2023-02-24T05:17:12.968Z,1011.37
2023-02-24T05:18:12.806Z,1011.32
2023-02-24T05:19:14.328Z,1011.32
2023-02-24T05:20:13.578Z,1011.30
2023-02-24T05:21:13.810Z,1011.31
2023-02-24T05:22:13.858Z,1011.27
2023-02-24T05:23:13.925Z,1011.30
2023-02-24T05:24:18.076Z,1011.27
2023-02-24T05:25:13.234Z,1011.27
2023-02-24T05:26:13.248Z,1011.27
2023-02-24T05:27:13.302Z,1011.24
2023-02-24T05:28:13.524Z,1011.23
2023-02-24T05:29:13.448Z,1011.22
2023-02-24T05:30:13.336Z,1011.25
2023-02-24T05:31:13.365Z,1011.23
2023-02-24T05:32:13.565Z,1011.21
2023-02-24T05:33:13.929Z,1011.21
2023-02-24T05:34:13.283Z,1011.19
2023-02-24T05:35:13.255Z,1011.17
2023-02-24T05:36:13.329Z,1011.15
2023-02-24T05:37:13.271Z,1011.14
2023-02-24T05:38:13.271Z,1011.16
2023-02-24T05:39:13.508Z,1011.14
2023-02-24T05:40:13.355Z,1011.14
2023-02-24T05:41:13.446Z,1011.09
2023-02-24T05:42:13.393Z,1011.03
2023-02-24T05:43:13.279Z,1011.02
2023-02-24T05:44:13.235Z,1011.05
2023-02-24T05:45:13.316Z,1010.99
2023-02-24T05:46:13.344Z,1010.97
2023-02-24T05:47:13.357Z,1010.96
2023-02-24T05:48:13.484Z,1010.95
2023-02-24T05:49:13.677Z,1010.95
2023-02-24T05:50:13.768Z,1010.95
2023-02-24T05:51:13.726Z,1010.88
2023-02-24T05:52:13.625Z,1010.88
2023-02-24T05:53:13.551Z,1010.87
2023-02-24T05:54:18.726Z,1010.88
2023-02-24T05:55:14.009Z,1010.85
2023-02-24T05:56:12.977Z,1010.84
2023-02-24T05:57:12.957Z,1010.81
2023-02-24T05:58:12.931Z,1010.78
2023-02-24T05:59:13.032Z,1010.82
2023-02-24T06:00:12.931Z,1010.80
2023-02-24T06:01:13.357Z,1010.78
2023-02-24T06:02:13.334Z,1010.77
2023-02-24T06:03:13.340Z,1010.76
2023-02-24T06:04:13.561Z,1010.75
2023-02-24T06:05:13.544Z,1010.76
2023-02-24T06:06:13.548Z,1010.77
2023-02-24T06:07:13.393Z,1010.75
2023-02-24T06:08:13.498Z,1010.73
2023-02-24T06:09:13.642Z,1010.69
2023-02-24T06:10:13.545Z,1010.68
2023-02-24T06:11:13.493Z,1010.70
2023-02-24T06:12:13.434Z,1010.70
2023-02-24T06:13:18.446Z,1010.71
2023-02-24T06:14:13.416Z,1010.69
2023-02-24T06:15:13.511Z,1010.69
2023-02-24T06:16:13.570Z,1010.69
2023-02-24T06:17:13.548Z,1010.67
2023-02-24T06:18:14.618Z,1010.66
2023-02-24T06:19:13.574Z,1010.62
2023-02-24T06:20:13.732Z,1010.60
2023-02-24T06:21:13.807Z,1010.58
2023-02-24T06:22:13.722Z,1010.61
2023-02-24T06:23:14.046Z,1010.56
2023-02-24T06:24:13.172Z,1010.55
2023-02-24T06:25:18.149Z,1010.58
2023-02-24T06:26:13.299Z,1010.54
2023-02-24T06:27:13.614Z,1010.55
2023-02-24T06:28:13.595Z,1010.55
2023-02-24T06:29:13.730Z,1010.52
2023-02-24T06:30:14.198Z,1010.48
2023-02-24T06:31:13.230Z,1010.51
2023-02-24T06:32:54.866Z,1010.52
2023-02-24T06:33:13.123Z,1010.50
2023-02-24T06:34:14.231Z,1010.44
2023-02-24T06:35:13.315Z,1010.44
2023-02-24T06:36:13.675Z,1010.42
2023-02-24T06:37:14.170Z,1010.40
2023-02-24T06:38:13.412Z,1010.42
2023-02-24T06:39:13.463Z,1010.38
2023-02-24T06:40:13.562Z,1010.37
2023-02-24T06:41:13.648Z,1010.38
2023-02-24T06:42:13.952Z,1010.32
2023-02-24T06:43:13.286Z,1010.30
2023-02-24T06:44:13.569Z,1010.32
2023-02-24T06:45:13.484Z,1010.34
2023-02-24T06:46:13.525Z,1010.31
2023-02-24T06:47:13.691Z,1010.34
2023-02-24T06:48:13.620Z,1010.32
2023-02-24T06:49:13.690Z,1010.29
2023-02-24T06:50:13.774Z,1010.30
2023-02-24T06:51:13.791Z,1010.24
2023-02-24T06:52:13.955Z,1010.28
2023-02-24T06:53:13.110Z,1010.22
2023-02-24T06:54:13.264Z,1010.26
2023-02-24T06:55:13.185Z,1010.27
2023-02-24T06:56:13.196Z,1010.23
2023-02-24T06:57:13.207Z,1010.25
2023-02-24T06:58:13.516Z,1010.24
2023-02-24T06:59:14.652Z,1010.21
2023-02-24T07:00:13.646Z,1010.26
2023-02-24T07:01:13.850Z,1010.19
2023-02-24T07:02:14.095Z,1010.20
2023-02-24T07:03:13.137Z,1010.24
2023-02-24T07:04:13.144Z,1010.21
2023-02-24T07:05:13.184Z,1010.19
2023-02-24T07:06:14.310Z,1010.15
2023-02-24T07:07:13.499Z,1010.16
2023-02-24T07:08:13.684Z,1010.17
2023-02-24T07:09:13.758Z,1010.18
2023-02-24T07:10:14.008Z,1010.18
2023-02-24T07:11:13.083Z,1010.13
2023-02-24T07:12:13.194Z,1010.15
2023-02-24T07:13:13.547Z,1010.15
2023-02-24T07:14:13.977Z,1010.17
2023-02-24T07:15:13.517Z,1010.19
2023-02-24T07:16:13.801Z,1010.16
2023-02-24T07:17:14.029Z,1010.16
2023-02-24T07:18:13.411Z,1010.19
2023-02-24T07:19:13.779Z,1010.24
2023-02-24T07:20:13.140Z,1010.23
2023-02-24T07:21:13.331Z,1010.20
2023-02-24T07:22:13.409Z,1010.16
2023-02-24T07:23:13.951Z,1010.20
2023-02-24T07:24:13.276Z,1010.14
2023-02-24T07:25:13.619Z,1010.13
2023-02-24T07:26:14.239Z,1010.08
2023-02-24T07:27:13.486Z,1010.05
2023-02-24T07:28:13.959Z,1010.11
2023-02-24T07:29:14.019Z,1010.08
2023-02-24T07:30:13.554Z,1010.07
2023-02-24T07:31:15.523Z,1010.03
2023-02-24T07:32:15.337Z,1010.05
2023-02-24T07:33:19.020Z,1010.01
2023-02-24T07:34:15.291Z,1010.02
2023-02-24T07:35:13.701Z,1009.98
2023-02-24T07:36:14.828Z,1009.99
2023-02-24T07:37:14.327Z,1009.95
2023-02-24T07:38:14.579Z,1009.92
2023-02-24T07:39:14.031Z,1009.88
2023-02-24T07:40:13.757Z,1009.88
2023-02-24T07:41:15.528Z,1009.87
2023-02-24T07:42:14.317Z,1009.86
2023-02-24T07:43:14.076Z,1009.85
2023-02-24T07:44:13.615Z,1009.87
2023-02-24T07:45:19.492Z,1009.82
2023-02-24T07:46:14.387Z,1009.79
2023-02-24T07:47:13.732Z,1009.75
2023-02-24T07:48:14.606Z,1009.75
2023-02-24T07:49:15.259Z,1009.76
2023-02-24T07:50:14.181Z,1009.72
2023-02-24T07:51:14.379Z,1009.74
2023-02-24T07:52:14.770Z,1009.68
2023-02-24T07:53:14.280Z,1009.67
2023-02-24T07:54:13.786Z,1009.60
2023-02-24T07:55:14.436Z,1009.61
2023-02-24T07:56:14.171Z,1009.63
2023-02-24T07:57:14.360Z,1009.56
2023-02-24T07:58:14.354Z,1009.59
2023-02-24T07:59:14.102Z,1009.56
2023-02-24T08:00:14.602Z,1009.55
2023-02-24T08:01:14.789Z,1009.60
2023-02-24T08:02:14.577Z,1009.58
2023-02-24T08:03:14.192Z,1009.55
2023-02-24T08:04:13.373Z,1009.54
2023-02-24T08:05:13.356Z,1009.54
2023-02-24T08:06:13.418Z,1009.49
2023-02-24T08:07:13.326Z,1009.46
2023-02-24T08:08:13.388Z,1009.47
2023-02-24T08:09:13.405Z,1009.42
2023-02-24T08:10:13.425Z,1009.40
2023-02-24T08:11:13.696Z,1009.36
2023-02-24T08:12:13.797Z,1009.34
2023-02-24T08:13:13.778Z,1009.35
2023-02-24T08:14:13.766Z,1009.29
2023-02-24T08:15:13.718Z,1009.26
2023-02-24T08:16:13.744Z,1009.23
2023-02-24T08:17:15.217Z,1009.20
2023-02-24T08:18:13.424Z,1009.20
2023-02-24T08:19:13.357Z,1009.15
2023-02-24T08:20:13.330Z,1009.12
2023-02-24T08:21:13.321Z,1009.14
2023-02-24T08:22:13.512Z,1009.14
2023-02-24T08:23:13.870Z,1009.15
2023-02-24T08:24:13.986Z,1009.09
2023-02-24T08:25:13.147Z,1009.11
2023-02-24T08:26:13.275Z,1009.10
2023-02-24T08:27:13.470Z,1009.14
2023-02-24T08:28:13.404Z,1009.07
2023-02-24T08:29:14.021Z,1009.05
2023-02-24T08:30:14.972Z,1009.03
2023-02-24T08:31:13.219Z,1009.05
2023-02-24T08:32:13.329Z,1009.09
2023-02-24T08:33:13.561Z,1009.02
2023-02-24T08:34:13.664Z,1009.02
2023-02-24T08:35:13.876Z,1009.01
2023-02-24T08:36:13.888Z,1009.04
2023-02-24T08:37:13.900Z,1009.00
2023-02-24T08:38:12.961Z,1009.01
2023-02-24T08:39:12.990Z,1009.01
2023-02-24T08:40:12.857Z,1008.98
2023-02-24T08:41:13.776Z,1009.02
2023-02-24T08:42:19.922Z,1008.98
2023-02-24T08:43:13.032Z,1008.97
2023-02-24T08:44:13.104Z,1008.97
2023-02-24T08:45:13.205Z,1008.98
2023-02-24T08:46:14.062Z,1008.94
2023-02-24T08:47:13.118Z,1008.92
2023-02-24T08:48:13.385Z,1008.92
2023-02-24T08:49:13.361Z,1008.88
2023-02-24T08:50:13.437Z,1008.85
2023-02-24T08:51:45.859Z,1008.84
2023-02-24T08:52:14.240Z,1008.81
2023-02-24T08:53:13.164Z,1008.83
2023-02-24T08:54:13.240Z,1008.75
2023-02-24T08:55:13.250Z,1008.79
2023-02-24T08:56:13.452Z,1008.75
2023-02-24T08:57:13.443Z,1008.70
2023-02-24T08:58:13.417Z,1008.74
2023-02-24T08:59:13.458Z,1008.70
2023-02-24T09:00:13.587Z,1008.72
2023-02-24T09:01:13.529Z,1008.67
2023-02-24T09:02:13.952Z,1008.68
2023-02-24T09:03:13.749Z,1008.68
2023-02-24T09:04:13.658Z,1008.72
2023-02-24T09:05:14.675Z,1008.67
2023-02-24T09:06:14.107Z,1008.65
2023-02-24T09:07:13.009Z,1008.63
2023-02-24T09:08:13.154Z,1008.65
2023-02-24T09:09:13.683Z,1008.61
2023-02-24T09:10:14.111Z,1008.66
2023-02-24T09:11:13.587Z,1008.59
2023-02-24T09:12:14.026Z,1008.58
2023-02-24T09:13:13.170Z,1008.56
2023-02-24T09:14:26.630Z,1008.56
2023-02-24T09:15:13.991Z,1008.54
2023-02-24T09:16:13.048Z,1008.53
2023-02-24T09:17:13.236Z,1008.50
2023-02-24T09:18:13.173Z,1008.49
2023-02-24T09:19:13.354Z,1008.52
2023-02-24T09:20:13.520Z,1008.50
2023-02-24T09:21:13.514Z,1008.50
2023-02-24T09:22:20.779Z,1008.51
2023-02-24T09:23:13.223Z,1008.53
2023-02-24T09:24:15.456Z,1008.55
2023-02-24T09:25:13.837Z,1008.49
2023-02-24T09:26:13.934Z,1008.53
2023-02-24T09:27:12.914Z,1008.51
2023-02-24T09:28:13.058Z,1008.46
2023-02-24T09:29:13.070Z,1008.51
2023-02-24T09:30:13.303Z,1008.48
2023-02-24T09:31:13.904Z,1008.50
2023-02-24T09:32:13.353Z,1008.49
2023-02-24T09:33:13.780Z,1008.50
2023-02-24T09:34:13.273Z,1008.43
2023-02-24T09:35:13.474Z,1008.46
2023-02-24T09:36:13.629Z,1008.42
2023-02-24T09:37:13.566Z,1008.41
2023-02-24T09:38:13.691Z,1008.30
2023-02-24T09:39:13.839Z,1008.23
2023-02-24T09:40:13.878Z,1008.23
2023-02-24T09:41:18.828Z,1008.20
2023-02-24T09:42:13.395Z,1008.14
2023-02-24T09:43:39.893Z,1008.09
2023-02-24T09:44:16.381Z,1008.11
2023-02-24T09:45:13.547Z,1008.13
2023-02-24T09:46:14.053Z,1008.18
2023-02-24T09:47:13.274Z,1008.14
2023-02-24T09:48:13.367Z,1008.14
2023-02-24T09:49:13.483Z,1008.11
2023-02-24T09:50:13.842Z,1008.11
2023-02-24T09:51:14.085Z,1008.02
2023-02-24T09:52:13.141Z,1007.98
2023-02-24T09:53:13.562Z,1007.97
2023-02-24T09:54:13.599Z,1008.02
2023-02-24T09:55:13.803Z,1008.04
2023-02-24T09:56:13.785Z,1007.95
2023-02-24T09:57:13.839Z,1007.96
2023-02-24T09:58:14.091Z,1007.93
2023-02-24T09:59:13.084Z,1007.91
2023-02-24T10:00:13.029Z,1007.89
2023-02-24T10:01:13.143Z,1007.78
2023-02-24T10:02:13.269Z,1007.87
2023-02-24T10:03:13.291Z,1007.85
2023-02-24T10:04:20.803Z,1007.86
2023-02-24T10:05:13.564Z,1007.87
2023-02-24T10:06:13.601Z,1007.81
2023-02-24T10:07:14.099Z,1007.82
2023-02-24T10:08:13.083Z,1007.85
2023-02-24T10:09:13.202Z,1007.82
2023-02-24T10:10:13.259Z,1007.86
2023-02-24T10:11:14.378Z,1007.82
2023-02-24T10:12:13.570Z,1007.79
2023-02-24T10:13:13.655Z,1007.81
2023-02-24T10:14:14.026Z,1007.72
2023-02-24T10:15:13.169Z,1007.75
2023-02-24T10:16:13.499Z,1007.72
2023-02-24T10:17:13.689Z,1007.78
2023-02-24T10:18:13.875Z,1007.76
2023-02-24T10:19:13.959Z,1007.74
2023-02-24T10:20:12.893Z,1007.67
2023-02-24T10:21:13.006Z,1007.66
2023-02-24T10:22:13.008Z,1007.67
2023-02-24T10:23:13.271Z,1007.66
2023-02-24T10:24:13.253Z,1007.62
2023-02-24T10:25:13.295Z,1007.54
2023-02-24T10:26:13.573Z,1007.63
2023-02-24T10:27:16.804Z,1007.60
2023-02-24T10:28:12.996Z,1007.57
2023-02-24T10:29:13.201Z,1007.52
2023-02-24T10:30:13.238Z,1007.52
2023-02-24T10:31:13.842Z,1007.51
2023-02-24T10:32:13.379Z,1007.49
2023-02-24T10:33:19.700Z,1007.53
2023-02-24T10:34:13.725Z,1007.38
2023-02-24T10:35:14.060Z,1007.48
2023-02-24T10:36:13.139Z,1007.47
2023-02-24T10:37:27.257Z,1007.37
2023-02-24T10:38:18.615Z,1007.45
2023-02-24T10:39:14.782Z,1007.45
2023-02-24T10:40:13.886Z,1007.40
2023-02-24T10:41:13.222Z,1007.43
2023-02-24T10:42:13.573Z,1007.43
2023-02-24T10:43:13.703Z,1007.32
2023-02-24T10:44:13.749Z,1007.32
2023-02-24T10:45:17.658Z,1007.39
2023-02-24T10:46:13.437Z,1007.34
2023-02-24T10:47:13.807Z,1007.27
2023-02-24T10:48:15.539Z,1007.34
2023-02-24T10:49:13.704Z,1007.27
2023-02-24T10:50:14.069Z,1007.26
2023-02-24T10:51:13.427Z,1007.34
2023-02-24T10:52:13.685Z,1007.30
2023-02-24T10:53:13.841Z,1007.34
2023-02-24T10:54:13.853Z,1007.33
2023-02-24T10:55:13.918Z,1007.34
2023-02-24T10:56:13.200Z,1007.26
2023-02-24T10:57:13.235Z,1007.26
2023-02-24T10:58:13.432Z,1007.23
2023-02-24T10:59:13.727Z,1007.16
2023-02-24T11:00:13.729Z,1007.19
2023-02-24T11:01:13.847Z,1007.16
2023-02-24T11:02:12.753Z,1007.14
2023-02-24T11:03:19.482Z,1007.17
2023-02-24T11:04:12.988Z,1007.11
2023-02-24T11:05:12.889Z,1007.11
2023-02-24T11:06:13.046Z,1007.02
2023-02-24T11:07:12.990Z,1007.04
2023-02-24T11:08:13.071Z,1007.07
2023-02-24T11:09:13.267Z,1006.99
2023-02-24T11:10:13.494Z,1006.92
2023-02-24T11:11:13.386Z,1006.89
2023-02-24T11:12:13.325Z,1006.82
2023-02-24T11:13:13.654Z,1006.81
2023-02-24T11:14:13.715Z,1006.78
2023-02-24T11:15:13.816Z,1006.84
2023-02-24T11:16:14.189Z,1006.86
2023-02-24T11:17:13.332Z,1006.79
2023-02-24T11:18:13.493Z,1006.79
2023-02-24T11:19:13.573Z,1006.76
2023-02-24T11:20:14.080Z,1006.77
2023-02-24T11:21:13.296Z,1006.76
2023-02-24T11:22:13.398Z,1006.76
2023-02-24T11:23:13.425Z,1006.80
2023-02-24T11:24:13.327Z,1006.75
2023-02-24T11:25:13.401Z,1006.74
2023-02-24T11:26:13.619Z,1006.76
2023-02-24T11:27:13.694Z,1006.65
2023-02-24T11:28:14.032Z,1006.56
2023-02-24T11:29:12.949Z,1006.54
2023-02-24T11:30:12.947Z,1006.54
2023-02-24T11:31:13.532Z,1006.59
2023-02-24T11:32:15.483Z,1006.61
2023-02-24T11:33:13.843Z,1006.59
2023-02-24T11:34:14.222Z,1006.57
2023-02-24T11:35:13.143Z,1006.53
2023-02-24T11:36:13.201Z,1006.52
2023-02-24T11:37:13.318Z,1006.41
2023-02-24T11:38:13.879Z,1006.47
2023-02-24T11:39:20.466Z,1006.42
2023-02-24T11:40:13.766Z,1006.40
2023-02-24T11:41:13.855Z,1006.30
2023-02-24T11:42:14.023Z,1006.32
2023-02-24T11:43:13.755Z,1006.35
2023-02-24T11:44:15.360Z,1006.34
2023-02-24T11:45:13.978Z,1006.36
2023-02-24T11:46:13.058Z,1006.38
2023-02-24T11:47:13.178Z,1006.33
2023-02-24T11:48:13.373Z,1006.29
2023-02-24T11:49:13.519Z,1006.30
2023-02-24T11:50:13.433Z,1006.24
2023-02-24T11:51:13.498Z,1006.21
2023-02-24T11:52:13.874Z,1006.15
2023-02-24T11:53:13.885Z,1006.23
2023-02-24T11:54:13.944Z,1006.21
2023-02-24T11:55:12.901Z,1006.20
2023-02-24T11:56:13.354Z,1006.19
2023-02-24T11:57:13.625Z,1006.08
2023-02-24T11:58:13.800Z,1006.13
2023-02-24T11:59:13.732Z,1006.18
2023-02-24T12:00:13.813Z,1006.11
2023-02-24T12:01:13.665Z,1006.12
2023-02-24T12:02:13.815Z,1006.15
2023-02-24T12:03:13.852Z,1006.08
2023-02-24T12:04:12.917Z,1006.12
2023-02-24T12:05:12.795Z,1006.10